Commerce, California
Current Conditions -  °F | °C
As of 12:47 PM on Thursday 27 Nov 2014 (Local Time) from KCQT Reporting Station
Clear Clear  
Wind Chill: 88°   Ceiling: Unl
Heat Index: 88°   Visibility: 10mi
Dew Point: 22°   Wind: 0mph
Humidity: 9%   Direction: NA
Pressure: 30.02"   Gusts: NA
Location:  34.0185°N, 118.199°W
Report Text: KCQT 272047Z AUTO 00000KT 10SM CLR 31/M06 A3002 RMK AO2 SLP161 T03111056 58028
Loading
Personal Weather Stations






























Interactive Weather Map New forecast layout! Learn more

10-Day Weather Forecast

Advertisements
Track Severe Weather on mobile